createdAt,value
2023-05-18T00:00:46.734Z,8.12
2023-05-18T00:03:14.471Z,8.06
2023-05-18T00:05:42.940Z,8.03
2023-05-18T00:08:10.593Z,8.02
2023-05-18T00:10:38.357Z,8.06
2023-05-18T00:13:08.660Z,7.94
2023-05-18T00:15:36.377Z,7.97
2023-05-18T00:18:04.407Z,7.91
2023-05-18T00:20:32.246Z,7.86
2023-05-18T00:23:00.602Z,7.80
2023-05-18T00:25:28.686Z,7.77
2023-05-18T00:27:56.610Z,7.76
2023-05-18T00:30:25.694Z,7.80
2023-05-18T00:32:53.358Z,7.76
2023-05-18T00:35:21.422Z,7.70
2023-05-18T00:37:49.045Z,7.73
2023-05-18T00:40:16.946Z,7.77
2023-05-18T00:42:44.618Z,7.68
2023-05-18T00:45:12.656Z,7.53
2023-05-18T00:47:41.626Z,7.70
2023-05-18T00:50:09.894Z,7.61
2023-05-18T00:52:37.592Z,7.63
2023-05-18T00:55:06.188Z,7.69
2023-05-18T00:57:34.311Z,7.59
2023-05-18T01:00:02.063Z,7.57
2023-05-18T01:02:30.602Z,7.55
2023-05-18T01:05:00.580Z,7.60
2023-05-18T01:07:28.284Z,7.49
2023-05-18T01:09:56.160Z,7.55
2023-05-18T01:12:27.293Z,7.41
2023-05-18T01:15:01.987Z,7.39
2023-05-18T01:17:35.020Z,7.50
2023-05-18T01:20:14.203Z,7.54
2023-05-18T01:23:10.176Z,7.34
2023-05-18T01:25:51.558Z,7.22
2023-05-18T01:28:22.822Z,7.25
2023-05-18T01:30:51.105Z,7.29
2023-05-18T01:33:18.749Z,7.25
2023-05-18T01:35:48.232Z,7.43
2023-05-18T01:38:17.904Z,7.17
2023-05-18T01:40:51.505Z,7.19
2023-05-18T01:43:21.699Z,7.11
2023-05-18T01:45:52.265Z,7.21
2023-05-18T01:48:21.977Z,7.25
2023-05-18T01:50:50.114Z,7.20
2023-05-18T01:53:25.000Z,7.17
2023-05-18T01:55:53.899Z,7.28
2023-05-18T01:58:23.302Z,7.22
2023-05-18T02:00:51.480Z,7.15
2023-05-18T02:03:19.247Z,7.16
2023-05-18T02:05:47.019Z,7.16
2023-05-18T02:08:14.643Z,7.00
2023-05-18T02:10:42.326Z,7.05
2023-05-18T02:13:09.955Z,7.16
2023-05-18T02:15:38.929Z,7.09
2023-05-18T02:18:08.442Z,7.08
2023-05-18T02:20:37.407Z,7.08
2023-05-18T02:23:05.056Z,7.08
2023-05-18T02:25:33.190Z,7.08
2023-05-18T02:28:01.003Z,7.08
2023-05-18T02:30:29.829Z,7.07
2023-05-18T02:32:58.865Z,6.98
2023-05-18T02:35:26.709Z,7.03
2023-05-18T02:37:55.800Z,7.00
2023-05-18T02:40:23.440Z,6.91
2023-05-18T02:42:51.260Z,6.97
2023-05-18T02:45:20.831Z,6.98
2023-05-18T02:47:48.489Z,6.95
2023-05-18T02:50:17.719Z,6.94
2023-05-18T02:52:45.842Z,6.98
2023-05-18T02:55:14.097Z,7.02
2023-05-18T02:57:46.893Z,6.96
2023-05-18T03:00:16.669Z,6.89
2023-05-18T03:02:48.223Z,6.95
2023-05-18T03:05:23.671Z,6.90
2023-05-18T03:07:52.223Z,6.89
2023-05-18T03:10:20.761Z,6.91
2023-05-18T03:12:48.581Z,6.96
2023-05-18T03:15:19.653Z,6.80
2023-05-18T03:17:47.408Z,6.85
2023-05-18T03:20:15.584Z,6.86
2023-05-18T03:22:44.670Z,6.79
2023-05-18T03:25:12.271Z,6.80
2023-05-18T03:27:39.897Z,6.76
2023-05-18T03:30:08.937Z,6.79
2023-05-18T03:32:37.098Z,6.72
2023-05-18T03:35:05.728Z,6.74
2023-05-18T03:37:33.499Z,6.64
2023-05-18T03:40:11.900Z,6.61
2023-05-18T03:42:39.569Z,6.74
2023-05-18T03:45:08.884Z,6.60
2023-05-18T03:47:36.831Z,6.64
2023-05-18T03:50:05.279Z,6.53
2023-05-18T03:52:34.191Z,6.68
2023-05-18T03:55:03.396Z,6.66
2023-05-18T03:57:31.767Z,6.59
2023-05-18T03:59:59.429Z,6.79
2023-05-18T04:02:27.189Z,6.59
2023-05-18T04:04:54.982Z,6.69
2023-05-18T04:07:24.156Z,6.79
2023-05-18T04:09:55.428Z,6.73
2023-05-18T04:12:24.696Z,6.69
2023-05-18T04:14:54.269Z,6.77
2023-05-18T04:17:22.852Z,6.86
2023-05-18T04:19:51.183Z,6.87
2023-05-18T04:22:18.958Z,6.86
2023-05-18T04:24:47.505Z,6.86
2023-05-18T04:27:15.510Z,6.88
2023-05-18T04:29:44.715Z,6.94
2023-05-18T04:32:12.385Z,7.06
2023-05-18T04:34:40.779Z,7.16
2023-05-18T04:37:10.471Z,7.16
2023-05-18T04:39:39.565Z,7.19
2023-05-18T04:42:07.756Z,7.22
2023-05-18T04:44:36.507Z,7.16
2023-05-18T04:47:08.528Z,7.20
2023-05-18T04:49:36.189Z,7.36
2023-05-18T04:52:06.575Z,7.33
2023-05-18T04:54:34.206Z,7.43
2023-05-18T04:57:02.155Z,7.54
2023-05-18T04:59:29.856Z,7.48
2023-05-18T05:01:57.457Z,7.49
2023-05-18T05:04:26.409Z,7.62
2023-05-18T05:06:54.057Z,7.79
2023-05-18T05:09:21.677Z,7.80
2023-05-18T05:11:49.294Z,7.78
2023-05-18T05:14:16.960Z,7.77
2023-05-18T05:16:44.579Z,7.90
2023-05-18T05:19:12.274Z,7.86
2023-05-18T05:21:41.578Z,8.13
2023-05-18T05:24:09.408Z,8.12
2023-05-18T05:26:37.197Z,8.05
2023-05-18T05:29:05.063Z,8.17
2023-05-18T05:31:34.491Z,8.29
2023-05-18T05:34:02.227Z,8.35
2023-05-18T05:36:29.897Z,8.20
2023-05-18T05:38:58.906Z,8.24
2023-05-18T05:41:26.628Z,8.29
2023-05-18T05:43:54.268Z,8.44
2023-05-18T05:46:22.020Z,8.49
2023-05-18T05:48:49.712Z,8.50
2023-05-18T05:51:17.717Z,8.56
2023-05-18T05:53:47.457Z,8.46
2023-05-18T05:56:16.473Z,8.70
2023-05-18T05:58:44.612Z,8.78
2023-05-18T06:01:12.262Z,8.78
2023-05-18T06:03:40.162Z,8.90
2023-05-18T06:06:08.181Z,8.91
2023-05-18T06:08:35.828Z,9.01
2023-05-18T06:11:04.008Z,9.13
2023-05-18T06:13:33.056Z,9.23
2023-05-18T06:16:00.710Z,9.31
2023-05-18T06:18:28.327Z,9.48
2023-05-18T06:20:56.739Z,9.43
2023-05-18T06:23:24.440Z,9.47
2023-05-18T06:25:52.112Z,9.69
2023-05-18T06:28:19.784Z,9.51
2023-05-18T06:30:48.805Z,9.78
2023-05-18T06:33:16.709Z,9.60
2023-05-18T06:35:45.017Z,9.55
2023-05-18T06:38:12.690Z,9.98
2023-05-18T06:40:40.345Z,9.99
2023-05-18T06:43:08.229Z,9.90
2023-05-18T06:45:37.361Z,10.05
2023-05-18T06:48:07.408Z,10.16
2023-05-18T06:50:35.063Z,10.16
2023-05-18T06:53:04.396Z,10.06
2023-05-18T06:55:32.198Z,10.12
2023-05-18T06:58:00.016Z,10.46
2023-05-18T07:00:27.732Z,10.69
2023-05-18T07:02:55.880Z,10.80
2023-05-18T07:05:25.709Z,10.90
2023-05-18T07:07:53.384Z,10.70
2023-05-18T07:10:22.594Z,11.03
2023-05-18T07:12:50.323Z,10.81
2023-05-18T07:15:17.985Z,10.82
2023-05-18T07:17:46.164Z,10.75
2023-05-18T07:20:14.042Z,10.63
2023-05-18T07:22:43.019Z,10.67
2023-05-18T07:25:10.859Z,10.81
2023-05-18T07:27:38.516Z,10.96
2023-05-18T07:30:07.942Z,10.76
2023-05-18T07:32:35.687Z,10.65
2023-05-18T07:35:03.449Z,10.68
2023-05-18T07:37:31.182Z,10.88
2023-05-18T07:40:00.185Z,11.16
2023-05-18T07:42:28.069Z,11.16
2023-05-18T07:44:55.714Z,11.50
2023-05-18T07:47:23.412Z,11.24
2023-05-18T07:49:51.103Z,11.26
2023-05-18T07:52:18.842Z,11.57
2023-05-18T07:54:46.557Z,12.04
2023-05-18T07:57:15.556Z,11.78
2023-05-18T07:59:43.292Z,11.50
2023-05-18T08:02:11.321Z,11.43
2023-05-18T08:04:39.035Z,11.46
2023-05-18T08:07:06.714Z,11.63
2023-05-18T08:09:34.376Z,11.37
2023-05-18T08:12:02.141Z,11.47
2023-05-18T08:14:31.268Z,11.68
2023-05-18T08:16:58.999Z,11.51
2023-05-18T08:19:27.002Z,11.84
2023-05-18T08:21:54.680Z,12.15
2023-05-18T08:24:23.014Z,12.49
2023-05-18T08:26:51.862Z,12.57
2023-05-18T08:29:19.471Z,12.25
2023-05-18T08:31:49.617Z,12.56
2023-05-18T08:34:17.576Z,12.28
2023-05-18T08:36:45.926Z,12.26
2023-05-18T08:39:13.732Z,12.60
2023-05-18T08:41:47.123Z,12.93
2023-05-18T08:44:17.702Z,12.99
2023-05-18T08:46:48.354Z,13.02
2023-05-18T08:49:18.946Z,12.72
2023-05-18T08:51:47.503Z,12.84
2023-05-18T08:54:20.620Z,12.88
2023-05-18T08:56:49.193Z,12.81
2023-05-18T08:59:20.275Z,13.27
2023-05-18T09:01:49.435Z,13.32
2023-05-18T09:04:17.292Z,13.49
2023-05-18T09:06:45.971Z,13.29
2023-05-18T09:09:13.769Z,13.36
2023-05-18T09:11:42.216Z,13.28
2023-05-18T09:14:10.402Z,13.57
2023-05-18T09:16:38.246Z,13.90
2023-05-18T09:19:07.447Z,13.63
2023-05-18T09:21:35.197Z,13.85
2023-05-18T09:24:06.665Z,14.11
2023-05-18T09:26:34.486Z,14.46
2023-05-18T09:29:02.587Z,14.51
2023-05-18T09:31:31.729Z,14.52
2023-05-18T09:34:01.109Z,14.63
2023-05-18T09:36:34.549Z,14.62
2023-05-18T09:39:08.605Z,14.62
2023-05-18T09:41:38.532Z,14.05
2023-05-18T09:44:09.416Z,14.39
2023-05-18T09:46:38.020Z,14.39
2023-05-18T09:49:06.636Z,14.18
2023-05-18T09:51:37.632Z,14.51
2023-05-18T09:54:06.250Z,14.74
2023-05-18T09:56:37.011Z,14.84
2023-05-18T09:59:11.658Z,14.83
2023-05-18T10:01:41.480Z,14.89
2023-05-18T10:04:09.225Z,14.82
2023-05-18T10:06:38.191Z,14.95
2023-05-18T10:09:16.613Z,14.78
2023-05-18T10:11:44.552Z,15.15
2023-05-18T10:14:12.328Z,15.40
2023-05-18T10:16:42.070Z,15.80
2023-05-18T10:19:10.172Z,15.18
2023-05-18T10:21:39.960Z,15.54
2023-05-18T10:24:08.837Z,15.58
2023-05-18T10:26:40.473Z,15.90
2023-05-18T10:29:08.528Z,16.20
2023-05-18T10:31:37.272Z,16.09
2023-05-18T10:34:05.223Z,15.73
2023-05-18T10:36:35.887Z,15.83
2023-05-18T10:39:06.426Z,15.45
2023-05-18T10:41:36.519Z,15.59
2023-05-18T10:44:04.688Z,15.59
2023-05-18T10:46:32.666Z,15.61
2023-05-18T10:49:01.860Z,15.81
2023-05-18T10:51:31.212Z,15.73
2023-05-18T10:54:12.039Z,15.73
2023-05-18T10:56:40.484Z,15.87
2023-05-18T10:59:08.585Z,15.38
2023-05-18T11:01:36.643Z,14.95
2023-05-18T11:04:04.932Z,15.09
2023-05-18T11:06:34.770Z,15.32
2023-05-18T11:09:03.358Z,16.07
2023-05-18T11:11:51.641Z,16.29
2023-05-18T11:14:26.346Z,16.27
2023-05-18T11:16:54.505Z,15.62
2023-05-18T11:19:26.978Z,16.14
2023-05-18T11:21:55.071Z,16.38
2023-05-18T11:24:27.958Z,15.93
2023-05-18T11:26:58.208Z,16.18
2023-05-18T11:29:31.747Z,16.86
2023-05-18T11:32:00.558Z,16.84
2023-05-18T11:34:42.068Z,17.06
2023-05-18T11:37:10.356Z,16.73
2023-05-18T11:39:48.096Z,16.55
2023-05-18T11:42:21.381Z,16.52
2023-05-18T11:44:53.306Z,16.82
2023-05-18T11:47:21.164Z,16.93
2023-05-18T11:49:50.079Z,17.01
2023-05-18T11:52:20.211Z,16.76
2023-05-18T11:54:52.079Z,16.87
2023-05-18T11:57:24.959Z,17.05
2023-05-18T11:59:56.713Z,16.36
2023-05-18T12:02:26.633Z,16.11
2023-05-18T12:04:56.384Z,16.13
2023-05-18T12:07:25.186Z,16.34
2023-05-18T12:09:53.087Z,16.92
2023-05-18T12:12:23.984Z,17.21
2023-05-18T12:14:55.839Z,16.85
2023-05-18T12:17:24.361Z,16.40
2023-05-18T12:19:52.293Z,16.35
2023-05-18T12:22:19.936Z,16.33
2023-05-18T12:24:47.574Z,16.87
2023-05-18T12:27:15.224Z,17.31
2023-05-18T12:29:44.402Z,17.06
2023-05-18T12:32:14.598Z,17.44
2023-05-18T12:34:45.442Z,17.20
2023-05-18T12:37:13.149Z,17.10
2023-05-18T12:39:40.794Z,16.71
2023-05-18T12:42:12.675Z,16.92
2023-05-18T12:44:40.690Z,16.96
2023-05-18T12:47:11.306Z,17.37
2023-05-18T12:49:39.639Z,17.11
2023-05-18T12:52:12.282Z,16.77
2023-05-18T12:54:54.845Z,16.83
2023-05-18T12:57:25.456Z,17.26
2023-05-18T12:59:53.850Z,17.64
2023-05-18T13:02:31.848Z,17.37
2023-05-18T13:05:04.061Z,17.24
2023-05-18T13:07:31.862Z,17.26
2023-05-18T13:10:02.864Z,17.06
2023-05-18T13:12:40.661Z,17.09
2023-05-18T13:15:13.596Z,17.37
2023-05-18T13:17:49.716Z,17.22
2023-05-18T13:20:18.067Z,17.42
2023-05-18T13:22:45.766Z,17.25
2023-05-18T13:25:13.361Z,17.35
2023-05-18T13:27:41.083Z,17.39
2023-05-18T13:30:09.872Z,17.46
2023-05-18T13:32:37.481Z,17.36
2023-05-18T13:35:07.236Z,17.65
2023-05-18T13:37:35.064Z,17.61
2023-05-18T13:40:02.962Z,17.48
2023-05-18T13:42:30.894Z,17.60
2023-05-18T13:44:58.530Z,17.50
2023-05-18T13:47:26.319Z,17.54
2023-05-18T13:49:54.059Z,17.64
2023-05-18T13:52:23.051Z,17.32
2023-05-18T13:54:50.849Z,17.65
2023-05-18T13:57:18.533Z,17.64
2023-05-18T13:59:46.871Z,17.38
2023-05-18T14:02:14.693Z,17.52
2023-05-18T14:04:42.364Z,17.54
2023-05-18T14:07:10.999Z,17.55
2023-05-18T14:09:40.001Z,17.57
2023-05-18T14:12:10.316Z,17.74
2023-05-18T14:14:38.638Z,17.62
2023-05-18T14:17:07.565Z,17.53
2023-05-18T14:19:36.393Z,17.61
2023-05-18T14:22:04.063Z,17.52
2023-05-18T14:24:31.774Z,17.59
2023-05-18T14:27:00.827Z,17.81
2023-05-18T14:29:28.425Z,18.00
2023-05-18T14:31:56.065Z,17.83
2023-05-18T14:34:23.707Z,17.58
2023-05-18T14:36:51.466Z,17.64
2023-05-18T14:39:19.112Z,17.88
2023-05-18T14:41:46.756Z,17.75
2023-05-18T14:44:15.782Z,16.99
2023-05-18T14:46:43.436Z,17.29
2023-05-18T14:49:11.256Z,17.44
2023-05-18T14:51:39.215Z,17.75
2023-05-18T14:54:06.978Z,17.95
2023-05-18T14:56:34.682Z,17.63
2023-05-18T14:59:02.810Z,17.75
2023-05-18T15:01:31.953Z,17.47
2023-05-18T15:03:59.685Z,17.37
2023-05-18T15:06:27.384Z,16.94
2023-05-18T15:08:55.076Z,17.15
2023-05-18T15:11:22.771Z,17.40
2023-05-18T15:13:50.436Z,17.59
2023-05-18T15:16:19.662Z,17.73
2023-05-18T15:18:48.884Z,17.78
2023-05-18T15:21:16.537Z,17.88
2023-05-18T15:23:44.415Z,17.89
2023-05-18T15:26:12.109Z,17.62
2023-05-18T15:28:40.964Z,17.53
2023-05-18T15:31:09.670Z,17.62
2023-05-18T15:33:42.069Z,17.60
2023-05-18T15:36:11.141Z,17.51
2023-05-18T15:38:38.774Z,17.63
2023-05-18T15:41:06.504Z,17.70
2023-05-18T15:43:36.478Z,17.71
2023-05-18T15:46:04.124Z,17.65
2023-05-18T15:48:31.753Z,17.41
2023-05-18T15:50:59.418Z,17.47
2023-05-18T15:53:28.385Z,17.60
2023-05-18T15:55:59.037Z,17.52
2023-05-18T15:58:27.468Z,17.53
2023-05-18T16:00:55.172Z,17.65
2023-05-18T16:03:23.025Z,17.71
2023-05-18T16:05:50.784Z,17.57
2023-05-18T16:08:18.405Z,17.41
2023-05-18T16:10:47.377Z,17.43
2023-05-18T16:13:15.186Z,17.48
2023-05-18T16:15:42.912Z,17.53
2023-05-18T16:18:10.654Z,17.50
2023-05-18T16:20:38.343Z,17.38
2023-05-18T16:23:05.972Z,17.57
2023-05-18T16:25:33.656Z,17.57
2023-05-18T16:28:02.616Z,17.66
2023-05-18T16:30:30.489Z,17.59
2023-05-18T16:32:58.366Z,17.61
2023-05-18T16:35:26.117Z,17.71
2023-05-18T16:37:53.751Z,17.81
2023-05-18T16:40:21.487Z,17.89
2023-05-18T16:42:49.067Z,17.71
2023-05-18T16:45:18.148Z,17.44
2023-05-18T16:47:45.858Z,17.50
2023-05-18T16:50:13.516Z,17.31
2023-05-18T16:52:41.419Z,17.46
2023-05-18T16:55:09.726Z,17.45
2023-05-18T16:57:37.448Z,17.38
2023-05-18T17:00:09.091Z,17.49
2023-05-18T17:02:38.971Z,17.34
2023-05-18T17:05:08.468Z,17.30
2023-05-18T17:07:36.742Z,17.27
2023-05-18T17:10:05.213Z,17.26
2023-05-18T17:12:33.544Z,17.11
2023-05-18T17:15:02.549Z,17.19
2023-05-18T17:17:30.323Z,17.17
2023-05-18T17:19:59.344Z,17.16
2023-05-18T17:22:27.005Z,17.23
2023-05-18T17:24:54.632Z,17.31
2023-05-18T17:27:22.543Z,17.24
2023-05-18T17:29:50.242Z,17.28
2023-05-18T17:32:17.871Z,17.00
2023-05-18T17:34:45.543Z,17.11
2023-05-18T17:37:14.548Z,16.90
2023-05-18T17:39:42.185Z,16.93
2023-05-18T17:42:09.818Z,16.83
2023-05-18T17:44:37.399Z,16.83
2023-05-18T17:47:05.426Z,16.73
2023-05-18T17:49:33.266Z,16.72
2023-05-18T17:52:00.895Z,16.77
2023-05-18T17:54:29.891Z,16.55
2023-05-18T17:56:57.614Z,16.55
2023-05-18T17:59:25.275Z,16.42
2023-05-18T18:01:52.910Z,16.35
2023-05-18T18:04:20.580Z,16.36
2023-05-18T18:06:48.213Z,16.20
2023-05-18T18:09:15.913Z,16.01
2023-05-18T18:11:44.910Z,16.00
2023-05-18T18:14:16.358Z,15.87
2023-05-18T18:16:44.153Z,15.90
2023-05-18T18:19:11.959Z,15.79
2023-05-18T18:21:39.818Z,15.51
2023-05-18T18:24:07.829Z,15.60
2023-05-18T18:26:40.199Z,15.40
2023-05-18T18:29:09.196Z,15.40
2023-05-18T18:31:36.911Z,15.35
2023-05-18T18:34:05.117Z,15.06
2023-05-18T18:36:32.730Z,15.02
2023-05-18T18:39:00.353Z,14.95
2023-05-18T18:41:27.997Z,14.91
2023-05-18T18:43:57.087Z,14.78
2023-05-18T18:46:26.149Z,14.71
2023-05-18T18:48:53.797Z,14.65
2023-05-18T18:51:21.423Z,14.52
2023-05-18T18:53:49.036Z,14.46
2023-05-18T18:56:16.734Z,14.52
2023-05-18T18:58:44.368Z,14.34
2023-05-18T19:01:12.229Z,14.18
2023-05-18T19:03:41.296Z,14.13
2023-05-18T19:06:08.973Z,14.18
2023-05-18T19:08:36.587Z,14.20
2023-05-18T19:11:04.219Z,14.06
2023-05-18T19:13:31.840Z,14.00
2023-05-18T19:15:59.575Z,14.06
2023-05-18T19:18:27.303Z,13.76
2023-05-18T19:20:56.309Z,13.78
2023-05-18T19:23:23.915Z,13.64
2023-05-18T19:25:51.558Z,13.68
2023-05-18T19:28:19.365Z,13.59
2023-05-18T19:30:48.096Z,13.47
2023-05-18T19:33:15.984Z,13.37
2023-05-18T19:35:43.653Z,13.44
2023-05-18T19:38:12.610Z,13.30
2023-05-18T19:40:40.216Z,13.39
2023-05-18T19:43:07.851Z,13.39
2023-05-18T19:45:35.870Z,13.21
2023-05-18T19:48:04.043Z,13.16
2023-05-18T19:50:31.677Z,13.17
2023-05-18T19:52:59.332Z,13.16
2023-05-18T19:55:28.304Z,13.00
2023-05-18T19:57:55.954Z,12.93
2023-05-18T20:00:23.793Z,12.88
2023-05-18T20:02:51.469Z,12.84
2023-05-18T20:05:19.517Z,12.83
2023-05-18T20:07:47.269Z,12.71
2023-05-18T20:10:14.959Z,12.66
2023-05-18T20:12:43.951Z,12.60
2023-05-18T20:15:11.952Z,12.67
2023-05-18T20:17:39.933Z,12.63
2023-05-18T20:20:08.720Z,12.65
2023-05-18T20:22:36.474Z,12.56
2023-05-18T20:25:05.451Z,12.54
2023-05-18T20:27:33.154Z,12.47
2023-05-18T20:30:02.190Z,12.54
2023-05-18T20:32:30.121Z,12.49
2023-05-18T20:34:57.752Z,12.41
2023-05-18T20:37:26.164Z,12.31
2023-05-18T20:39:57.348Z,12.41
2023-05-18T20:42:25.031Z,12.31
2023-05-18T20:44:53.341Z,12.16
2023-05-18T20:47:22.368Z,12.11
2023-05-18T20:49:50.152Z,12.03
2023-05-18T20:52:17.773Z,12.02
2023-05-18T20:54:46.045Z,11.95
2023-05-18T20:57:13.675Z,11.96
2023-05-18T20:59:41.370Z,11.98
2023-05-18T21:02:09.249Z,12.02
2023-05-18T21:04:38.196Z,11.92
2023-05-18T21:07:06.062Z,11.80
2023-05-18T21:09:34.425Z,11.80
2023-05-18T21:12:02.604Z,11.76
2023-05-18T21:14:30.189Z,11.75
2023-05-18T21:16:57.915Z,11.68
2023-05-18T21:19:25.629Z,11.57
2023-05-18T21:21:54.649Z,11.66
2023-05-18T21:24:22.308Z,11.51
2023-05-18T21:26:49.954Z,11.51
2023-05-18T21:29:17.569Z,11.51
2023-05-18T21:31:45.181Z,11.29
2023-05-18T21:34:13.687Z,11.30
2023-05-18T21:36:41.522Z,11.27
2023-05-18T21:39:10.449Z,11.23
2023-05-18T21:41:40.343Z,11.30
2023-05-18T21:44:08.116Z,11.35
2023-05-18T21:46:36.680Z,11.09
2023-05-18T21:49:05.098Z,11.18
2023-05-18T21:51:32.891Z,11.13
2023-05-18T21:54:01.207Z,11.15
2023-05-18T21:56:30.272Z,11.08
2023-05-18T21:58:58.041Z,11.06
2023-05-18T22:01:25.745Z,11.06
2023-05-18T22:03:53.456Z,10.99
2023-05-18T22:06:21.085Z,11.01
2023-05-18T22:08:48.857Z,11.04
2023-05-18T22:11:16.488Z,10.89
2023-05-18T22:13:45.737Z,10.92
2023-05-18T22:16:13.427Z,10.81
2023-05-18T22:18:41.118Z,10.85
2023-05-18T22:21:08.747Z,10.71
2023-05-18T22:23:36.610Z,10.70
2023-05-18T22:26:04.256Z,10.60
2023-05-18T22:28:31.858Z,10.49
2023-05-18T22:31:00.875Z,10.52
2023-05-18T22:33:29.284Z,10.46
2023-05-18T22:35:57.065Z,10.49
2023-05-18T22:38:24.750Z,10.53
2023-05-18T22:40:54.049Z,10.55
2023-05-18T22:43:21.855Z,10.51
2023-05-18T22:45:49.651Z,10.47
2023-05-18T22:48:18.691Z,10.40
2023-05-18T22:50:46.357Z,10.39
2023-05-18T22:53:13.992Z,10.26
2023-05-18T22:55:41.685Z,10.30
2023-05-18T22:58:09.332Z,10.27
2023-05-18T23:00:37.007Z,10.24
2023-05-18T23:03:04.803Z,10.26
2023-05-18T23:05:33.901Z,10.31
2023-05-18T23:08:02.684Z,10.30
2023-05-18T23:10:30.717Z,10.35
2023-05-18T23:12:59.726Z,10.26
2023-05-18T23:15:27.784Z,10.13
2023-05-18T23:17:55.505Z,10.21
2023-05-18T23:20:23.727Z,10.22
2023-05-18T23:22:52.953Z,10.24
2023-05-18T23:25:21.074Z,10.18
2023-05-18T23:27:48.662Z,10.23
2023-05-18T23:30:16.264Z,10.21
2023-05-18T23:32:45.466Z,10.19
2023-05-18T23:35:14.392Z,10.23
2023-05-18T23:37:43.183Z,10.09
2023-05-18T23:40:13.713Z,10.20
2023-05-18T23:42:41.958Z,10.09
2023-05-18T23:45:11.128Z,9.99
2023-05-18T23:47:39.153Z,10.03
2023-05-18T23:50:08.304Z,10.01
2023-05-18T23:52:36.547Z,9.92
2023-05-18T23:55:05.282Z,9.82
2023-05-18T23:57:35.002Z,9.96
